sensor_id;sensor_type;location;lat;lon;timestamp;pressure;altitude;pressure_sealevel;temperature;humidity
15568;BME280;7885;42.596;23.044;2023-07-08T00:00:19;93343.16;;;18.59;100.00
15568;BME280;7885;42.596;23.044;2023-07-08T00:02:46;93350.22;;;18.60;100.00
15568;BME280;7885;42.596;23.044;2023-07-08T00:05:15;93356.34;;;18.51;100.00
15568;BME280;7885;42.596;23.044;2023-07-08T00:07:43;93349.47;;;18.27;100.00
15568;BME280;7885;42.596;23.044;2023-07-08T00:10:15;93352.06;;;18.18;100.00
15568;BME280;7885;42.596;23.044;2023-07-08T00:12:45;93339.84;;;18.19;100.00
15568;BME280;7885;42.596;23.044;2023-07-08T00:15:14;93343.97;;;18.27;100.00
15568;BME280;7885;42.596;23.044;2023-07-08T00:17:41;93328.38;;;18.21;100.00
15568;BME280;7885;42.596;23.044;2023-07-08T00:20:13;93330.53;;;18.29;100.00
15568;BME280;7885;42.596;23.044;2023-07-08T00:22:41;93325.44;;;18.28;100.00
15568;BME280;7885;42.596;23.044;2023-07-08T00:25:08;93328.78;;;18.35;100.00
15568;BME280;7885;42.596;23.044;2023-07-08T00:27:35;93300.81;;;18.21;100.00
15568;BME280;7885;42.596;23.044;2023-07-08T00:30:13;93303.94;;;18.23;100.00
15568;BME280;7885;42.596;23.044;2023-07-08T00:32:43;93318.53;;;18.36;100.00
15568;BME280;7885;42.596;23.044;2023-07-08T00:35:10;93303.75;;;18.30;100.00
15568;BME280;7885;42.596;23.044;2023-07-08T00:37:37;93285.16;;;18.17;100.00
15568;BME280;7885;42.596;23.044;2023-07-08T00:40:13;93310.03;;;18.30;100.00
15568;BME280;7885;42.596;23.044;2023-07-08T00:42:42;93310.91;;;18.27;100.00
15568;BME280;7885;42.596;23.044;2023-07-08T00:45:18;93306.06;;;18.31;100.00
15568;BME280;7885;42.596;23.044;2023-07-08T00:47:47;93302.97;;;18.29;100.00
15568;BME280;7885;42.596;23.044;2023-07-08T00:50:15;93290.56;;;18.21;100.00
15568;BME280;7885;42.596;23.044;2023-07-08T00:52:44;93276.41;;;18.06;100.00
15568;BME280;7885;42.596;23.044;2023-07-08T00:55:11;93314.41;;;18.28;100.00
15568;BME280;7885;42.596;23.044;2023-07-08T00:57:41;93310.13;;;18.27;100.00
15568;BME280;7885;42.596;23.044;2023-07-08T01:00:12;93307.78;;;18.25;100.00
15568;BME280;7885;42.596;23.044;2023-07-08T01:02:46;93301.34;;;18.15;100.00
15568;BME280;7885;42.596;23.044;2023-07-08T01:05:17;93321.84;;;18.14;100.00
15568;BME280;7885;42.596;23.044;2023-07-08T01:07:48;93311.69;;;18.11;100.00
15568;BME280;7885;42.596;23.044;2023-07-08T01:10:19;93305.41;;;18.11;100.00
15568;BME280;7885;42.596;23.044;2023-07-08T01:12:51;93299.56;;;18.09;100.00
15568;BME280;7885;42.596;23.044;2023-07-08T01:15:20;93300.25;;;18.13;100.00
15568;BME280;7885;42.596;23.044;2023-07-08T01:17:50;93305.50;;;18.24;100.00
15568;BME280;7885;42.596;23.044;2023-07-08T01:20:19;93293.09;;;18.15;100.00
15568;BME280;7885;42.596;23.044;2023-07-08T01:22:47;93296.09;;;18.21;100.00
15568;BME280;7885;42.596;23.044;2023-07-08T01:25:14;93296.44;;;18.23;100.00
15568;BME280;7885;42.596;23.044;2023-07-08T01:27:44;93305.41;;;18.27;100.00
15568;BME280;7885;42.596;23.044;2023-07-08T01:30:13;93298.16;;;18.33;100.00
15568;BME280;7885;42.596;23.044;2023-07-08T01:32:45;93270.09;;;18.22;100.00
15568;BME280;7885;42.596;23.044;2023-07-08T01:35:13;93271.94;;;18.41;100.00
15568;BME280;7885;42.596;23.044;2023-07-08T01:37:43;93277.25;;;18.48;100.00
15568;BME280;7885;42.596;23.044;2023-07-08T01:40:25;93279.56;;;18.50;100.00
15568;BME280;7885;42.596;23.044;2023-07-08T01:42:53;93269.53;;;18.43;100.00
15568;BME280;7885;42.596;23.044;2023-07-08T01:45:22;93264.53;;;18.38;100.00
15568;BME280;7885;42.596;23.044;2023-07-08T01:47:52;93274.34;;;18.39;100.00
15568;BME280;7885;42.596;23.044;2023-07-08T01:50:20;93277.88;;;18.40;100.00
15568;BME280;7885;42.596;23.044;2023-07-08T01:52:49;93288.47;;;18.41;100.00
15568;BME280;7885;42.596;23.044;2023-07-08T01:55:22;93286.94;;;18.40;100.00
15568;BME280;7885;42.596;23.044;2023-07-08T01:57:51;93299.47;;;18.41;100.00
15568;BME280;7885;42.596;23.044;2023-07-08T02:00:19;93290.88;;;18.39;100.00
15568;BME280;7885;42.596;23.044;2023-07-08T02:02:46;93285.38;;;18.39;100.00
15568;BME280;7885;42.596;23.044;2023-07-08T02:05:13;93289.59;;;18.44;100.00
15568;BME280;7885;42.596;23.044;2023-07-08T02:07:40;93284.31;;;18.49;100.00
15568;BME280;7885;42.596;23.044;2023-07-08T02:10:07;93266.38;;;18.29;100.00
15568;BME280;7885;42.596;23.044;2023-07-08T02:12:35;93292.44;;;18.40;100.00
15568;BME280;7885;42.596;23.044;2023-07-08T02:15:03;93293.22;;;18.41;100.00
15568;BME280;7885;42.596;23.044;2023-07-08T02:17:30;93286.56;;;18.38;100.00
15568;BME280;7885;42.596;23.044;2023-07-08T02:19:57;93289.00;;;18.36;100.00
15568;BME280;7885;42.596;23.044;2023-07-08T02:22:24;93296.06;;;18.37;100.00
15568;BME280;7885;42.596;23.044;2023-07-08T02:24:50;93299.47;;;18.41;100.00
15568;BME280;7885;42.596;23.044;2023-07-08T02:27:17;93303.28;;;18.31;100.00
15568;BME280;7885;42.596;23.044;2023-07-08T02:29:45;93298.34;;;18.26;100.00
15568;BME280;7885;42.596;23.044;2023-07-08T02:32:12;93304.72;;;18.23;100.00
15568;BME280;7885;42.596;23.044;2023-07-08T02:34:39;93287.00;;;18.08;100.00
15568;BME280;7885;42.596;23.044;2023-07-08T02:37:05;93300.91;;;18.17;100.00
15568;BME280;7885;42.596;23.044;2023-07-08T02:39:32;93294.75;;;18.13;100.00
15568;BME280;7885;42.596;23.044;2023-07-08T02:41:59;93272.78;;;17.93;100.00
15568;BME280;7885;42.596;23.044;2023-07-08T02:44:26;93274.13;;;17.89;100.00
15568;BME280;7885;42.596;23.044;2023-07-08T02:46:54;93292.78;;;17.97;100.00
15568;BME280;7885;42.596;23.044;2023-07-08T02:49:21;93302.13;;;18.00;100.00
15568;BME280;7885;42.596;23.044;2023-07-08T02:51:48;93307.56;;;18.03;100.00
15568;BME280;7885;42.596;23.044;2023-07-08T02:54:14;93302.91;;;18.00;100.00
15568;BME280;7885;42.596;23.044;2023-07-08T02:56:41;93316.97;;;18.06;100.00
15568;BME280;7885;42.596;23.044;2023-07-08T02:59:08;93317.72;;;17.90;100.00
15568;BME280;7885;42.596;23.044;2023-07-08T03:01:35;93317.66;;;17.78;100.00
15568;BME280;7885;42.596;23.044;2023-07-08T03:04:08;93318.16;;;17.73;100.00
15568;BME280;7885;42.596;23.044;2023-07-08T03:06:39;93315.56;;;17.65;100.00
15568;BME280;7885;42.596;23.044;2023-07-08T03:09:06;93290.59;;;17.40;100.00
15568;BME280;7885;42.596;23.044;2023-07-08T03:11:32;93310.72;;;17.37;100.00
15568;BME280;7885;42.596;23.044;2023-07-08T03:13:59;93311.19;;;17.32;100.00
15568;BME280;7885;42.596;23.044;2023-07-08T03:16:26;93286.22;;;17.07;100.00
15568;BME280;7885;42.596;23.044;2023-07-08T03:18:52;93310.50;;;17.28;100.00
15568;BME280;7885;42.596;23.044;2023-07-08T03:21:20;93302.94;;;17.32;100.00
15568;BME280;7885;42.596;23.044;2023-07-08T03:23:48;93302.94;;;17.32;100.00
15568;BME280;7885;42.596;23.044;2023-07-08T03:26:17;93239.09;;;16.89;100.00
15568;BME280;7885;42.596;23.044;2023-07-08T03:28:45;93271.00;;;17.02;100.00
15568;BME280;7885;42.596;23.044;2023-07-08T03:31:11;93289.72;;;17.27;100.00
15568;BME280;7885;42.596;23.044;2023-07-08T03:33:38;93285.75;;;17.28;100.00
15568;BME280;7885;42.596;23.044;2023-07-08T03:36:10;93283.63;;;17.36;100.00
15568;BME280;7885;42.596;23.044;2023-07-08T03:38:39;93287.84;;;17.40;100.00
15568;BME280;7885;42.596;23.044;2023-07-08T03:41:06;93287.13;;;17.36;100.00
15568;BME280;7885;42.596;23.044;2023-07-08T03:43:32;93283.94;;;17.38;100.00
15568;BME280;7885;42.596;23.044;2023-07-08T03:45:59;93291.78;;;17.39;100.00
15568;BME280;7885;42.596;23.044;2023-07-08T03:48:26;93281.63;;;17.36;100.00
15568;BME280;7885;42.596;23.044;2023-07-08T03:50:52;93294.78;;;17.45;100.00
15568;BME280;7885;42.596;23.044;2023-07-08T03:53:19;93307.97;;;17.53;100.00
15568;BME280;7885;42.596;23.044;2023-07-08T03:55:47;93305.41;;;17.62;100.00
15568;BME280;7885;42.596;23.044;2023-07-08T03:58:14;93307.50;;;17.75;100.00
15568;BME280;7885;42.596;23.044;2023-07-08T04:00:41;93281.50;;;17.76;100.00
15568;BME280;7885;42.596;23.044;2023-07-08T04:03:10;93305.75;;;17.97;100.00
15568;BME280;7885;42.596;23.044;2023-07-08T04:05:37;93300.09;;;17.88;100.00
15568;BME280;7885;42.596;23.044;2023-07-08T04:08:04;93300.59;;;17.99;100.00
15568;BME280;7885;42.596;23.044;2023-07-08T04:10:31;93308.69;;;18.06;100.00
15568;BME280;7885;42.596;23.044;2023-07-08T04:12:59;93301.13;;;18.10;100.00
15568;BME280;7885;42.596;23.044;2023-07-08T04:15:26;93299.97;;;18.07;100.00
15568;BME280;7885;42.596;23.044;2023-07-08T04:17:54;93315.91;;;18.16;100.00
15568;BME280;7885;42.596;23.044;2023-07-08T04:20:21;93313.41;;;18.22;100.00
15568;BME280;7885;42.596;23.044;2023-07-08T04:22:48;93323.47;;;18.28;100.00
15568;BME280;7885;42.596;23.044;2023-07-08T04:25:15;93309.00;;;18.24;100.00
15568;BME280;7885;42.596;23.044;2023-07-08T04:27:41;93297.72;;;18.18;100.00
15568;BME280;7885;42.596;23.044;2023-07-08T04:30:18;93289.16;;;18.16;100.00
15568;BME280;7885;42.596;23.044;2023-07-08T04:32:46;93307.53;;;18.36;100.00
15568;BME280;7885;42.596;23.044;2023-07-08T04:35:15;93295.91;;;18.28;100.00
15568;BME280;7885;42.596;23.044;2023-07-08T04:37:41;93308.19;;;18.40;100.00
15568;BME280;7885;42.596;23.044;2023-07-08T04:40:14;93316.81;;;18.42;100.00
15568;BME280;7885;42.596;23.044;2023-07-08T04:42:42;93317.84;;;18.48;100.00
15568;BME280;7885;42.596;23.044;2023-07-08T04:45:11;93322.06;;;18.52;100.00
15568;BME280;7885;42.596;23.044;2023-07-08T04:47:38;93304.16;;;18.44;100.00
15568;BME280;7885;42.596;23.044;2023-07-08T04:50:05;93326.09;;;18.64;100.00
15568;BME280;7885;42.596;23.044;2023-07-08T04:52:32;93330.31;;;18.69;100.00
15568;BME280;7885;42.596;23.044;2023-07-08T04:54:59;93328.47;;;18.78;100.00
15568;BME280;7885;42.596;23.044;2023-07-08T04:57:25;93330.25;;;18.85;100.00
15568;BME280;7885;42.596;23.044;2023-07-08T04:59:52;93289.47;;;18.63;100.00
15568;BME280;7885;42.596;23.044;2023-07-08T05:02:20;93341.06;;;18.92;100.00
15568;BME280;7885;42.596;23.044;2023-07-08T05:04:47;93342.50;;;18.96;100.00
15568;BME280;7885;42.596;23.044;2023-07-08T05:07:14;93346.81;;;18.97;100.00
15568;BME280;7885;42.596;23.044;2023-07-08T05:09:40;93322.84;;;18.82;100.00
15568;BME280;7885;42.596;23.044;2023-07-08T05:12:07;93345.81;;;18.91;100.00
15568;BME280;7885;42.596;23.044;2023-07-08T05:14:34;93349.16;;;18.99;100.00
15568;BME280;7885;42.596;23.044;2023-07-08T05:17:01;93351.91;;;18.99;100.00
15568;BME280;7885;42.596;23.044;2023-07-08T05:19:29;93342.50;;;18.96;100.00
15568;BME280;7885;42.596;23.044;2023-07-08T05:21:56;93336.16;;;19.12;100.00
15568;BME280;7885;42.596;23.044;2023-07-08T05:24:22;93340.28;;;19.20;100.00
15568;BME280;7885;42.596;23.044;2023-07-08T05:26:49;93341.47;;;19.19;100.00
15568;BME280;7885;42.596;23.044;2023-07-08T05:29:16;93336.97;;;19.25;100.00
15568;BME280;7885;42.596;23.044;2023-07-08T05:31:43;93342.81;;;19.27;100.00
15568;BME280;7885;42.596;23.044;2023-07-08T05:34:09;93345.91;;;19.29;100.00
15568;BME280;7885;42.596;23.044;2023-07-08T05:36:37;93323.84;;;19.29;100.00
15568;BME280;7885;42.596;23.044;2023-07-08T05:39:04;93351.94;;;19.53;100.00
15568;BME280;7885;42.596;23.044;2023-07-08T05:41:31;93358.34;;;19.62;100.00
15568;BME280;7885;42.596;23.044;2023-07-08T05:43:58;93355.81;;;19.68;100.00
15568;BME280;7885;42.596;23.044;2023-07-08T05:46:24;93333.59;;;19.46;100.00
15568;BME280;7885;42.596;23.044;2023-07-08T05:48:51;93357.56;;;19.62;100.00
15568;BME280;7885;42.596;23.044;2023-07-08T05:51:18;93383.97;;;19.76;100.00
15568;BME280;7885;42.596;23.044;2023-07-08T05:53:46;93373.81;;;19.73;100.00
15568;BME280;7885;42.596;23.044;2023-07-08T05:56:13;93370.72;;;19.71;100.00
15568;BME280;7885;42.596;23.044;2023-07-08T05:58:39;93366.75;;;19.72;100.00
15568;BME280;7885;42.596;23.044;2023-07-08T06:01:06;93374.59;;;19.86;100.00
15568;BME280;7885;42.596;23.044;2023-07-08T06:03:33;93381.91;;;19.92;100.00
15568;BME280;7885;42.596;23.044;2023-07-08T06:05:59;93390.81;;;19.96;100.00
15568;BME280;7885;42.596;23.044;2023-07-08T06:08:26;93387.72;;;20.07;100.00
15568;BME280;7885;42.596;23.044;2023-07-08T06:10:54;93398.34;;;20.21;100.00
15568;BME280;7885;42.596;23.044;2023-07-08T06:13:21;93385.31;;;20.09;98.82
15568;BME280;7885;42.596;23.044;2023-07-08T06:15:48;93400.34;;;20.08;99.02
15568;BME280;7885;42.596;23.044;2023-07-08T06:18:15;93407.09;;;20.20;96.34
15568;BME280;7885;42.596;23.044;2023-07-08T06:20:42;93401.69;;;20.16;94.55
15568;BME280;7885;42.596;23.044;2023-07-08T06:23:16;93399.91;;;20.35;95.99
15568;BME280;7885;42.596;23.044;2023-07-08T06:25:43;93412.59;;;20.57;94.92
15568;BME280;7885;42.596;23.044;2023-07-08T06:28:11;93417.66;;;20.72;91.01
15568;BME280;7885;42.596;23.044;2023-07-08T06:30:38;93411.41;;;20.80;91.29
15568;BME280;7885;42.596;23.044;2023-07-08T06:33:04;93416.53;;;20.82;89.97
15568;BME280;7885;42.596;23.044;2023-07-08T06:35:31;93411.31;;;20.84;90.98
15568;BME280;7885;42.596;23.044;2023-07-08T06:37:59;93390.00;;;20.72;90.87
15568;BME280;7885;42.596;23.044;2023-07-08T06:40:26;93417.56;;;20.97;90.75
15568;BME280;7885;42.596;23.044;2023-07-08T06:42:53;93412.38;;;20.99;90.28
15568;BME280;7885;42.596;23.044;2023-07-08T06:45:21;93409.47;;;21.02;89.41
15568;BME280;7885;42.596;23.044;2023-07-08T06:47:47;93374.53;;;20.96;90.08
15568;BME280;7885;42.596;23.044;2023-07-08T06:50:14;93384.84;;;21.17;90.00
15568;BME280;7885;42.596;23.044;2023-07-08T06:52:41;93423.75;;;21.35;87.23
15568;BME280;7885;42.596;23.044;2023-07-08T06:55:10;93429.38;;;21.44;88.38
15568;BME280;7885;42.596;23.044;2023-07-08T06:57:37;93429.56;;;21.50;86.66
15568;BME280;7885;42.596;23.044;2023-07-08T07:00:05;93398.13;;;21.44;86.20
15568;BME280;7885;42.596;23.044;2023-07-08T07:02:34;93424.19;;;21.55;84.85
15568;BME280;7885;42.596;23.044;2023-07-08T07:05:01;93366.47;;;21.23;85.21
15568;BME280;7885;42.596;23.044;2023-07-08T07:07:27;93426.81;;;21.81;86.52
15568;BME280;7885;42.596;23.044;2023-07-08T07:09:54;93419.09;;;21.76;84.51
15568;BME280;7885;42.596;23.044;2023-07-08T07:15:42;93415.31;;;21.60;85.48
15568;BME280;7885;42.596;23.044;2023-07-08T07:18:10;93424.00;;;21.50;84.27
15568;BME280;7885;42.596;23.044;2023-07-08T07:20:38;93442.06;;;21.54;84.24
15568;BME280;7885;42.596;23.044;2023-07-08T07:23:04;93427.16;;;21.61;85.87
15568;BME280;7885;42.596;23.044;2023-07-08T07:25:31;93433.28;;;21.78;86.59
15568;BME280;7885;42.596;23.044;2023-07-08T07:27:58;93404.66;;;21.59;84.31
15568;BME280;7885;42.596;23.044;2023-07-08T07:30:25;93441.88;;;21.80;83.97
15568;BME280;7885;42.596;23.044;2023-07-08T07:32:51;93445.25;;;21.75;82.86
15568;BME280;7885;42.596;23.044;2023-07-08T07:35:19;93452.78;;;21.74;84.27
15568;BME280;7885;42.596;23.044;2023-07-08T07:37:46;93444.47;;;21.74;84.75
15568;BME280;7885;42.596;23.044;2023-07-08T07:40:13;93440.09;;;21.86;83.24
15568;BME280;7885;42.596;23.044;2023-07-08T07:42:41;93415.81;;;21.90;86.03
15568;BME280;7885;42.596;23.044;2023-07-08T07:45:09;93438.38;;;22.10;85.01
15568;BME280;7885;42.596;23.044;2023-07-08T07:47:36;93438.38;;;22.10;83.50
15568;BME280;7885;42.596;23.044;2023-07-08T07:50:03;93444.84;;;22.07;84.13
15568;BME280;7885;42.596;23.044;2023-07-08T07:52:31;93452.47;;;21.94;84.68
15568;BME280;7885;42.596;23.044;2023-07-08T07:54:58;93440.03;;;21.98;86.20
15568;BME280;7885;42.596;23.044;2023-07-08T07:57:25;93443.09;;;22.31;84.72
15568;BME280;7885;42.596;23.044;2023-07-08T07:59:52;93437.25;;;22.29;83.86
15568;BME280;7885;42.596;23.044;2023-07-08T08:02:19;93421.03;;;22.19;83.22
15568;BME280;7885;42.596;23.044;2023-07-08T08:04:46;93456.19;;;22.61;85.84
15568;BME280;7885;42.596;23.044;2023-07-08T08:07:12;93411.44;;;22.50;83.47
15568;BME280;7885;42.596;23.044;2023-07-08T08:09:41;93444.22;;;22.83;83.23
15568;BME280;7885;42.596;23.044;2023-07-08T08:12:10;93444.28;;;23.19;83.16
15568;BME280;7885;42.596;23.044;2023-07-08T08:14:37;93426.97;;;23.24;81.33
15568;BME280;7885;42.596;23.044;2023-07-08T08:17:05;93451.72;;;23.49;80.88
15568;BME280;7885;42.596;23.044;2023-07-08T08:19:32;93380.72;;;23.30;78.67
15568;BME280;7885;42.596;23.044;2023-07-08T08:21:58;93436.22;;;23.76;79.64
15568;BME280;7885;42.596;23.044;2023-07-08T08:24:25;93439.66;;;23.71;77.81
15568;BME280;7885;42.596;23.044;2023-07-08T08:26:53;93431.59;;;23.73;79.69
15568;BME280;7885;42.596;23.044;2023-07-08T08:29:20;93427.00;;;23.70;80.29
15568;BME280;7885;42.596;23.044;2023-07-08T08:31:46;93435.44;;;23.93;78.16
15568;BME280;7885;42.596;23.044;2023-07-08T08:34:13;93435.28;;;23.97;78.52
15568;BME280;7885;42.596;23.044;2023-07-08T08:36:40;93422.00;;;23.92;77.46
15568;BME280;7885;42.596;23.044;2023-07-08T08:39:08;93428.19;;;23.96;80.55
15568;BME280;7885;42.596;23.044;2023-07-08T08:41:37;93416.13;;;23.90;79.39
15568;BME280;7885;42.596;23.044;2023-07-08T08:44:08;93435.59;;;23.90;78.80
15568;BME280;7885;42.596;23.044;2023-07-08T08:46:43;93438.22;;;24.02;77.83
15568;BME280;7885;42.596;23.044;2023-07-08T08:49:18;93436.63;;;24.20;78.46
15568;BME280;7885;42.596;23.044;2023-07-08T08:51:49;93416.91;;;23.99;77.31
15568;BME280;7885;42.596;23.044;2023-07-08T08:54:16;93439.56;;;24.07;78.44
15568;BME280;7885;42.596;23.044;2023-07-08T08:56:50;93435.19;;;24.33;78.69
15568;BME280;7885;42.596;23.044;2023-07-08T08:59:28;93427.00;;;24.62;77.69
15568;BME280;7885;42.596;23.044;2023-07-08T09:01:56;93400.66;;;24.73;74.71
15568;BME280;7885;42.596;23.044;2023-07-08T09:04:26;93417.59;;;24.93;75.50
15568;BME280;7885;42.596;23.044;2023-07-08T09:07:01;93428.75;;;25.17;74.80
15568;BME280;7885;42.596;23.044;2023-07-08T09:09:36;93426.28;;;25.33;75.02
15568;BME280;7885;42.596;23.044;2023-07-08T09:12:18;93434.56;;;25.42;75.30
15568;BME280;7885;42.596;23.044;2023-07-08T09:14:50;93433.97;;;25.38;74.54
15568;BME280;7885;42.596;23.044;2023-07-08T09:17:20;93423.28;;;25.22;74.30
15568;BME280;7885;42.596;23.044;2023-07-08T09:23:16;93406.47;;;25.17;74.05
15568;BME280;7885;42.596;23.044;2023-07-08T09:25:50;93417.28;;;25.14;74.82
15568;BME280;7885;42.596;23.044;2023-07-08T09:28:17;93405.09;;;25.12;73.26
15568;BME280;7885;42.596;23.044;2023-07-08T09:30:48;93385.13;;;24.90;74.31
15568;BME280;7885;42.596;23.044;2023-07-08T09:33:15;93409.66;;;25.00;73.06
15568;BME280;7885;42.596;23.044;2023-07-08T09:35:44;93402.94;;;25.07;74.54
15568;BME280;7885;42.596;23.044;2023-07-08T09:38:15;93388.50;;;24.94;77.39
15568;BME280;7885;42.596;23.044;2023-07-08T09:40:46;93392.25;;;24.91;73.30
15568;BME280;7885;42.596;23.044;2023-07-08T09:43:23;93402.22;;;25.21;75.19
15568;BME280;7885;42.596;23.044;2023-07-08T09:45:57;93402.22;;;25.21;73.88
15568;BME280;7885;42.596;23.044;2023-07-08T09:48:27;93386.94;;;24.93;73.38
15568;BME280;7885;42.596;23.044;2023-07-08T09:50:57;93399.56;;;25.27;75.98
15568;BME280;7885;42.596;23.044;2023-07-08T09:53:24;93410.22;;;25.28;73.20
15568;BME280;7885;42.596;23.044;2023-07-08T09:55:52;93401.72;;;25.46;73.77
15568;BME280;7885;42.596;23.044;2023-07-08T09:58:23;93402.16;;;25.54;74.20
15568;BME280;7885;42.596;23.044;2023-07-08T10:00:55;93390.66;;;25.37;74.08
15568;BME280;7885;42.596;23.044;2023-07-08T10:03:25;93390.81;;;25.57;74.39
15568;BME280;7885;42.596;23.044;2023-07-08T10:05:55;93394.47;;;25.63;73.09
15568;BME280;7885;42.596;23.044;2023-07-08T10:08:25;93357.94;;;25.61;72.78
15568;BME280;7885;42.596;23.044;2023-07-08T10:10:58;93388.69;;;26.11;73.73
15568;BME280;7885;42.596;23.044;2023-07-08T10:13:33;93374.66;;;26.05;70.72
15568;BME280;7885;42.596;23.044;2023-07-08T10:16:12;93371.59;;;26.18;71.29
15568;BME280;7885;42.596;23.044;2023-07-08T10:18:40;93375.72;;;26.08;66.36
15568;BME280;7885;42.596;23.044;2023-07-08T10:21:11;93370.59;;;26.06;68.61
15568;BME280;7885;42.596;23.044;2023-07-08T10:23:48;93368.88;;;26.09;70.73
15568;BME280;7885;42.596;23.044;2023-07-08T10:26:21;93357.75;;;25.94;68.76
15568;BME280;7885;42.596;23.044;2023-07-08T10:28:58;93373.19;;;26.10;70.49
15568;BME280;7885;42.596;23.044;2023-07-08T10:31:32;93324.06;;;25.98;68.39
15568;BME280;7885;42.596;23.044;2023-07-08T10:34:18;93361.97;;;26.19;68.74
15568;BME280;7885;42.596;23.044;2023-07-08T10:36:52;93351.19;;;26.12;69.15
15568;BME280;7885;42.596;23.044;2023-07-08T10:39:44;93349.84;;;26.07;66.71
15568;BME280;7885;42.596;23.044;2023-07-08T10:42:25;93326.97;;;25.89;68.20
15568;BME280;7885;42.596;23.044;2023-07-08T10:45:01;93337.25;;;25.97;70.97
15568;BME280;7885;42.596;23.044;2023-07-08T10:47:43;93335.97;;;26.28;69.80
15568;BME280;7885;42.596;23.044;2023-07-08T10:50:26;93354.84;;;26.18;68.38
15568;BME280;7885;42.596;23.044;2023-07-08T10:55:50;93337.91;;;26.56;69.05
15568;BME280;7885;42.596;23.044;2023-07-08T10:58:39;93347.63;;;26.61;67.48
15568;BME280;7885;42.596;23.044;2023-07-08T11:01:17;93338.34;;;26.70;67.70
15568;BME280;7885;42.596;23.044;2023-07-08T11:06:50;93324.50;;;26.40;66.20
15568;BME280;7885;42.596;23.044;2023-07-08T11:09:25;93326.56;;;26.25;65.34
15568;BME280;7885;42.596;23.044;2023-07-08T11:11:58;93338.28;;;26.29;65.78
15568;BME280;7885;42.596;23.044;2023-07-08T11:14:30;93328.28;;;26.23;67.15
15568;BME280;7885;42.596;23.044;2023-07-08T11:17:10;93322.72;;;26.23;65.48
15568;BME280;7885;42.596;23.044;2023-07-08T11:19:48;93301.09;;;26.03;64.42
15568;BME280;7885;42.596;23.044;2023-07-08T11:22:18;93334.25;;;26.30;66.70
15568;BME280;7885;42.596;23.044;2023-07-08T11:24:48;93329.69;;;26.47;65.95
15568;BME280;7885;42.596;23.044;2023-07-08T11:27:20;93327.38;;;26.31;64.01
15568;BME280;7885;42.596;23.044;2023-07-08T11:29:52;93340.22;;;26.23;65.65
15568;BME280;7885;42.596;23.044;2023-07-08T11:32:25;93339.22;;;26.41;67.59
15568;BME280;7885;42.596;23.044;2023-07-08T11:34:55;93337.09;;;26.36;65.46
15568;BME280;7885;42.596;23.044;2023-07-08T11:37:24;93337.06;;;26.50;65.99
15568;BME280;7885;42.596;23.044;2023-07-08T11:39:58;93319.91;;;26.57;62.41
15568;BME280;7885;42.596;23.044;2023-07-08T11:42:31;93323.59;;;26.49;64.79
15568;BME280;7885;42.596;23.044;2023-07-08T11:45:00;93323.88;;;26.51;63.96
15568;BME280;7885;42.596;23.044;2023-07-08T11:47:35;93329.41;;;26.66;65.54
15568;BME280;7885;42.596;23.044;2023-07-08T11:50:20;93323.53;;;26.43;63.46
15568;BME280;7885;42.596;23.044;2023-07-08T11:52:51;93288.94;;;26.21;64.90
15568;BME280;7885;42.596;23.044;2023-07-08T11:55:22;93296.13;;;26.27;63.20
15568;BME280;7885;42.596;23.044;2023-07-08T11:57:54;93321.00;;;26.45;64.03
15568;BME280;7885;42.596;23.044;2023-07-08T12:00:24;93301.09;;;26.38;62.60
15568;BME280;7885;42.596;23.044;2023-07-08T12:02:55;93324.91;;;26.33;63.06
15568;BME280;7885;42.596;23.044;2023-07-08T12:05:32;93310.56;;;26.26;64.06
15568;BME280;7885;42.596;23.044;2023-07-08T12:07:59;93321.31;;;26.47;64.12
15568;BME280;7885;42.596;23.044;2023-07-08T12:10:32;93322.69;;;26.37;64.18
15568;BME280;7885;42.596;23.044;2023-07-08T12:12:59;93326.31;;;26.43;64.11
15568;BME280;7885;42.596;23.044;2023-07-08T12:15:27;93321.09;;;26.51;63.19
15568;BME280;7885;42.596;23.044;2023-07-08T12:17:56;93314.16;;;26.46;62.17
15568;BME280;7885;42.596;23.044;2023-07-08T12:20:27;93299.81;;;26.53;63.69
15568;BME280;7885;42.596;23.044;2023-07-08T12:22:56;93293.38;;;26.47;61.98
15568;BME280;7885;42.596;23.044;2023-07-08T12:25:26;93299.63;;;26.22;63.21
15568;BME280;7885;42.596;23.044;2023-07-08T12:27:53;93300.00;;;26.30;64.15
15568;BME280;7885;42.596;23.044;2023-07-08T12:30:20;93311.53;;;26.37;63.19
15568;BME280;7885;42.596;23.044;2023-07-08T12:32:47;93314.41;;;26.63;63.15
15568;BME280;7885;42.596;23.044;2023-07-08T12:35:20;93301.78;;;26.68;62.81
15568;BME280;7885;42.596;23.044;2023-07-08T12:37:48;93310.88;;;26.83;63.45
15568;BME280;7885;42.596;23.044;2023-07-08T12:40:17;93311.16;;;26.85;61.24
15568;BME280;7885;42.596;23.044;2023-07-08T12:42:44;93313.88;;;26.99;62.28
15568;BME280;7885;42.596;23.044;2023-07-08T12:45:16;93296.13;;;27.02;62.95
15568;BME280;7885;42.596;23.044;2023-07-08T12:47:44;93316.97;;;27.27;62.00
15568;BME280;7885;42.596;23.044;2023-07-08T12:50:12;93320.44;;;27.42;60.78
15568;BME280;7885;42.596;23.044;2023-07-08T12:52:40;93313.13;;;27.45;60.78
15568;BME280;7885;42.596;23.044;2023-07-08T12:55:08;93316.44;;;27.23;58.65
15568;BME280;7885;42.596;23.044;2023-07-08T12:57:37;93321.75;;;27.01;59.04
15568;BME280;7885;42.596;23.044;2023-07-08T13:00:05;93315.53;;;27.11;60.29
15568;BME280;7885;42.596;23.044;2023-07-08T13:02:32;93316.31;;;26.92;60.15
15568;BME280;7885;42.596;23.044;2023-07-08T13:05:01;93296.03;;;26.56;62.07
15568;BME280;7885;42.596;23.044;2023-07-08T13:07:34;93312.53;;;26.75;62.75
15568;BME280;7885;42.596;23.044;2023-07-08T13:10:03;93314.47;;;26.69;63.10
15568;BME280;7885;42.596;23.044;2023-07-08T13:12:32;93302.44;;;26.62;63.19
15568;BME280;7885;42.596;23.044;2023-07-08T13:15:06;93306.44;;;26.76;64.29
15568;BME280;7885;42.596;23.044;2023-07-08T13:17:36;93307.78;;;27.01;63.73